createdAt,value
2018-07-12T00:05:20.434Z,19.1
2018-07-12T00:10:55.559Z,19
2018-07-12T00:16:20.202Z,19
2018-07-12T00:21:50.998Z,18.9
2018-07-12T00:27:26.857Z,18.9
2018-07-12T00:32:52.866Z,18.8
2018-07-12T00:38:22.466Z,18.8
2018-07-12T00:43:53.308Z,18.7
2018-07-12T00:49:29.329Z,18.7
2018-07-12T00:54:53.913Z,18.7
2018-07-12T01:00:25.443Z,18.6
2018-07-12T01:05:55.731Z,18.5
2018-07-12T01:11:26.275Z,18.5
2018-07-12T01:17:01.041Z,18.5
2018-07-12T01:22:25.922Z,18.5
2018-07-12T01:28:01.648Z,18.4
2018-07-12T01:33:27.752Z,18.4
2018-07-12T01:38:57.201Z,18.4
2018-07-12T01:44:27.979Z,18.3
2018-07-12T01:50:02.800Z,18.2
2018-07-12T01:55:27.526Z,18.2
2018-07-12T02:00:57.287Z,18.1
2018-07-12T02:06:32.998Z,18.1
2018-07-12T02:11:58.821Z,18.2
2018-07-12T02:17:28.563Z,18.2
2018-07-12T02:23:03.347Z,18.1
2018-07-12T02:28:33.291Z,18
2018-07-12T02:33:57.764Z,18
2018-07-12T02:39:27.447Z,17.9
2018-07-12T02:44:57.119Z,17.9
2018-07-12T02:50:28.107Z,17.8
2018-07-12T02:55:58.811Z,17.8
2018-07-12T03:01:28.299Z,17.7
2018-07-12T03:06:58.247Z,17.7
2018-07-12T03:12:32.950Z,17.6
2018-07-12T03:18:02.464Z,17.6
2018-07-12T03:23:33.134Z,17.5
2018-07-12T03:28:59.382Z,17.5
2018-07-12T03:34:29.732Z,17.5
2018-07-12T03:40:00.271Z,17.5
2018-07-12T03:45:31.292Z,17.6
2018-07-12T03:51:01.657Z,17.6
2018-07-12T03:56:31.419Z,17.7
2018-07-12T04:02:02.200Z,17.8
2018-07-12T04:07:32.774Z,17.8
2018-07-12T04:13:07.780Z,17.9
2018-07-12T04:18:38.225Z,18
2018-07-12T04:24:04.071Z,18.1
2018-07-12T04:29:34.689Z,18.2
2018-07-12T04:35:05.494Z,18.3
2018-07-12T04:40:35.203Z,18.5
2018-07-12T04:40:36.415Z,18.5
2018-07-12T04:46:05.004Z,18.5
2018-07-12T04:51:35.994Z,18.5
2018-07-12T04:57:05.544Z,18.4
2018-07-12T05:02:40.285Z,18.3
2018-07-12T05:08:05.073Z,18.3
2018-07-12T05:13:34.752Z,18.3
2018-07-12T05:19:05.543Z,18.4
2018-07-12T05:24:40.652Z,18.4
2018-07-12T05:30:06.305Z,18.4
2018-07-12T05:35:36.888Z,18.5
2018-07-12T05:41:07.642Z,18.5
2018-07-12T05:46:38.628Z,18.5
2018-07-12T05:52:14.439Z,18.6
2018-07-12T05:57:43.976Z,18.8
2018-07-12T06:03:09.773Z,19
2018-07-12T06:08:45.655Z,19.3
2018-07-12T06:14:11.521Z,19.5
2018-07-12T06:19:42.429Z,19.7
2018-07-12T06:25:13.706Z,19.9
2018-07-12T06:30:43.528Z,20
2018-07-12T06:36:18.249Z,20.2
2018-07-12T06:41:48.757Z,20.5
2018-07-12T06:47:14.372Z,20.7
2018-07-12T06:52:44.165Z,20.9
2018-07-12T06:58:15.251Z,21
2018-07-12T07:03:51.315Z,21.1
2018-07-12T07:09:21.368Z,21.2
2018-07-12T07:14:51.842Z,21.3
2018-07-12T07:20:17.888Z,21.4
2018-07-12T07:25:52.577Z,21.6
2018-07-12T07:31:22.654Z,21.8
2018-07-12T07:36:48.806Z,22.1
2018-07-12T07:42:19.001Z,22.4
2018-07-12T07:47:50.266Z,22.5
2018-07-12T07:53:26.709Z,22.5
2018-07-12T07:58:51.745Z,22.6
2018-07-12T08:04:23.067Z,22.6
2018-07-12T08:15:30.592Z,22.6
2018-07-12T08:20:55.677Z,22.7
2018-07-12T08:26:26.057Z,22.8
2018-07-12T08:31:57.359Z,22.9
2018-07-12T08:37:28.261Z,23.1
2018-07-12T08:42:59.617Z,23.2
2018-07-12T08:48:30.997Z,23.4
2018-07-12T08:54:01.411Z,23.6
2018-07-12T08:59:36.704Z,23.7
2018-07-12T09:10:38.403Z,24.1
2018-07-12T09:16:09.321Z,24.4
2018-07-12T09:21:34.302Z,24.6
2018-07-12T09:27:05.052Z,24.7
2018-07-12T09:32:36.129Z,24.8
2018-07-12T09:38:06.696Z,24.8
2018-07-12T09:43:37.502Z,25
2018-07-12T09:49:07.894Z,25.2
2018-07-12T09:54:39.349Z,25.2
2018-07-12T10:00:09.897Z,25.2
2018-07-12T10:05:40.481Z,25.1
2018-07-12T10:11:11.939Z,25
2018-07-12T10:16:42.467Z,24.9
2018-07-12T10:22:13.207Z,24.8
2018-07-12T10:27:49.069Z,24.8
2018-07-12T10:33:19.261Z,24.9
2018-07-12T10:38:45.786Z,25.2
2018-07-12T10:44:17.066Z,25.5
2018-07-12T10:49:47.802Z,25.8
2018-07-12T10:55:23.443Z,26.1
2018-07-12T11:00:49.224Z,26.3
2018-07-12T11:06:20.055Z,26.4
2018-07-12T11:11:50.488Z,26.3
2018-07-12T11:17:21.196Z,26
2018-07-12T11:22:53.219Z,25.7
2018-07-12T11:28:23.531Z,25.5
2018-07-12T11:33:55.170Z,25.4
2018-07-12T11:39:25.910Z,25.7
2018-07-12T11:44:56.334Z,25.9
2018-07-12T11:50:32.138Z,25.8
2018-07-12T11:55:57.817Z,25.5
2018-07-12T12:01:34.599Z,25.4
2018-07-12T12:07:00.835Z,25.1
2018-07-12T12:12:32.522Z,24.7
2018-07-12T12:18:03.705Z,24.2
2018-07-12T12:23:40.145Z,23.8
2018-07-12T12:29:06.434Z,23.4
2018-07-12T12:34:37.768Z,23.2
2018-07-12T12:40:13.374Z,23
2018-07-12T12:45:45.968Z,22.7
2018-07-12T12:51:09.739Z,22.6
2018-07-12T12:56:39.857Z,22.5
2018-07-12T13:02:11.404Z,22.5
2018-07-12T13:07:42.377Z,22.5
2018-07-12T13:13:12.700Z,22.6
2018-07-12T13:18:42.862Z,22.6
2018-07-12T13:24:14.111Z,22.6
2018-07-12T13:29:44.394Z,22.6
2018-07-12T13:35:15.174Z,22.7
2018-07-12T13:40:45.950Z,22.8
2018-07-12T13:46:21.513Z,23
2018-07-12T13:51:52.592Z,23.2
2018-07-12T13:57:18.943Z,23.5
2018-07-12T14:02:50.297Z,23.7
2018-07-12T14:08:26.673Z,23.8
2018-07-12T14:13:58.388Z,23.8
2018-07-12T14:19:24.783Z,23.7
2018-07-12T14:25:00.102Z,23.6
2018-07-12T14:30:30.341Z,23.6
2018-07-12T14:35:55.913Z,23.8
2018-07-12T14:41:27.036Z,24.2
2018-07-12T14:47:03.518Z,24.5
2018-07-12T14:52:34.007Z,24.7
2018-07-12T14:57:59.738Z,24.8
2018-07-12T15:03:30.064Z,24.9
2018-07-12T15:09:00.945Z,25
2018-07-12T15:14:37.184Z,24.9
2018-07-12T15:20:03.719Z,24.7
2018-07-12T15:25:40.426Z,24.6
2018-07-12T15:31:11.049Z,24.5
2018-07-12T15:36:37.147Z,24.5
2018-07-12T15:42:07.615Z,24.5
2018-07-12T15:47:38.403Z,24.5
2018-07-12T15:53:13.645Z,24.5
2018-07-12T15:58:44.375Z,24.4
2018-07-12T16:04:10.821Z,24.2
2018-07-12T16:09:41.141Z,24.1
2018-07-12T16:15:11.376Z,23.9
2018-07-12T16:20:48.057Z,23.7
2018-07-12T16:26:14.441Z,23.6
2018-07-12T16:31:45.547Z,23.6
2018-07-12T16:37:20.977Z,23.6
2018-07-12T16:42:46.318Z,23.5
2018-07-12T16:48:21.685Z,23.3
2018-07-12T16:53:48.282Z,23.2
2018-07-12T16:59:18.566Z,23.2
2018-07-12T17:04:48.765Z,23.3
2018-07-12T17:10:20.075Z,23.2
2018-07-12T17:15:51.725Z,23
2018-07-12T17:21:22.267Z,22.9
2018-07-12T17:21:26.574Z,22.9
2018-07-12T17:26:52.119Z,22.9
2018-07-12T17:32:22.237Z,22.9
2018-07-12T17:37:53.509Z,22.7
2018-07-12T17:43:29.965Z,22.6
2018-07-12T17:48:54.997Z,22.4
2018-07-12T17:54:25.126Z,22.2
2018-07-12T18:00:01.614Z,21.9
2018-07-12T18:05:26.519Z,21.6
2018-07-12T18:11:02.192Z,21.3
2018-07-12T18:16:26.753Z,21.2
2018-07-12T18:22:03.051Z,21.1
2018-07-12T18:27:32.871Z,20.9
2018-07-12T18:32:58.080Z,20.8
2018-07-12T18:38:32.864Z,20.7
2018-07-12T18:43:57.902Z,20.6
2018-07-12T18:49:27.910Z,20.5
2018-07-12T18:55:04.272Z,20.4
2018-07-12T19:00:29.120Z,20.4
2018-07-12T19:06:00.297Z,20.3
2018-07-12T19:11:35.258Z,20.2
2018-07-12T19:17:00.887Z,20.1
2018-07-12T19:22:36.870Z,20
2018-07-12T19:28:02.269Z,19.8
2018-07-12T19:33:33.276Z,19.7
2018-07-12T19:39:03.624Z,19.6
2018-07-12T19:44:33.741Z,19.6
2018-07-12T19:50:09.546Z,19.5
2018-07-12T19:55:40.410Z,19.5
2018-07-12T20:01:06.246Z,19.4
2018-07-12T20:06:36.347Z,19.3
2018-07-12T20:12:12.250Z,19.2
2018-07-12T20:17:37.791Z,19.1
2018-07-12T20:23:07.891Z,18.9
2018-07-12T20:28:43.487Z,18.8
2018-07-12T20:34:08.383Z,18.7
2018-07-12T20:39:39.498Z,18.6
2018-07-12T20:45:09.110Z,18.5
2018-07-12T20:45:09.421Z,18.5
2018-07-12T20:50:38.645Z,18.4
2018-07-12T20:56:08.485Z,18.3
2018-07-12T21:01:39.133Z,18.1
2018-07-12T21:07:08.877Z,18.1
2018-07-12T21:12:39.637Z,18.1
2018-07-12T21:18:09.452Z,18.2
2018-07-12T21:23:39.174Z,18.2
2018-07-12T21:29:14.880Z,18.2
2018-07-12T21:34:39.618Z,18.1
2018-07-12T21:40:10.591Z,18
2018-07-12T21:45:41.947Z,18
2018-07-12T21:51:16.804Z,17.9
2018-07-12T22:02:11.534Z,17.9
2018-07-12T22:07:42.507Z,17.8
2018-07-12T22:07:46.941Z,17.8
2018-07-12T22:13:17.608Z,17.8
2018-07-12T22:18:42.401Z,17.7
2018-07-12T22:24:12.091Z,17.7
2018-07-12T22:29:47.784Z,17.7
2018-07-12T22:35:12.477Z,17.7
2018-07-12T22:40:42.200Z,17.7
2018-07-12T22:46:17.909Z,17.6
2018-07-12T22:51:47.645Z,17.6
2018-07-12T22:57:12.624Z,17.6
2018-07-12T23:02:41.977Z,17.5
2018-07-12T23:08:11.692Z,17.5
2018-07-12T23:13:41.360Z,17.4
2018-07-12T23:19:11.080Z,17.3
2018-07-12T23:24:45.811Z,17.3
2018-07-12T23:30:11.388Z,17.2
2018-07-12T23:35:42.067Z,17.2
2018-07-12T23:41:13.081Z,17.1
2018-07-12T23:46:43.468Z,17.1
2018-07-12T23:52:13.054Z,17
2018-07-12T23:57:47.693Z,17
